createdAt,value
2022-08-03T00:00:14.210Z,71.4
2022-08-03T00:05:18.747Z,74.1
2022-08-03T00:10:22.301Z,74.8
2022-08-03T00:15:26.816Z,73.5
2022-08-03T00:20:31.341Z,72.8
2022-08-03T00:25:34.868Z,73.6
2022-08-03T00:30:39.422Z,74.3
2022-08-03T00:35:50.920Z,74.3
2022-08-03T00:40:47.510Z,75.1
2022-08-03T00:45:52.025Z,76.2
2022-08-03T00:50:56.575Z,77.6
2022-08-03T00:56:00.140Z,77.3
2022-08-03T01:01:05.016Z,76.9
2022-08-03T01:06:09.169Z,77.6
2022-08-03T01:11:13.698Z,79.1
2022-08-03T01:16:17.291Z,80.8
2022-08-03T01:21:21.802Z,80.5
2022-08-03T01:26:26.378Z,78
2022-08-03T01:31:29.924Z,77.8
2022-08-03T01:36:34.409Z,77.6
2022-08-03T01:41:38.961Z,76.3
2022-08-03T01:46:47.551Z,77.6
2022-08-03T01:52:03.681Z,78.1
2022-08-03T01:56:51.569Z,78.9
2022-08-03T02:02:29.039Z,79.3
2022-08-03T02:07:03.107Z,78.9
2022-08-03T02:12:04.187Z,79.6
2022-08-03T02:17:08.707Z,81.5
2022-08-03T02:22:12.329Z,82.3
2022-08-03T02:27:16.815Z,82.6
2022-08-03T02:32:21.349Z,82.6
2022-08-03T02:37:24.889Z,81.4
2022-08-03T02:42:29.449Z,81.9
2022-08-03T02:47:53.864Z,81.4
2022-08-03T02:52:37.520Z,79.9
2022-08-03T02:57:42.057Z,79.9
2022-08-03T03:02:45.580Z,80.1
2022-08-03T03:07:53.024Z,79.9
2022-08-03T03:12:54.685Z,79.7
2022-08-03T03:17:58.200Z,79.5
2022-08-03T03:23:02.787Z,79.3
2022-08-03T03:28:07.301Z,79.4
2022-08-03T03:33:10.840Z,79.8
2022-08-03T03:38:15.381Z,81
2022-08-03T03:43:19.921Z,82.2
2022-08-03T03:48:23.462Z,82.4
2022-08-03T03:53:28.007Z,83.9
2022-08-03T03:58:32.596Z,85.1
2022-08-03T04:03:37.073Z,85.4
2022-08-03T04:08:40.618Z,85.4
2022-08-03T04:13:45.128Z,85.7
2022-08-03T04:18:49.686Z,85.7
2022-08-03T04:23:53.203Z,84.5
2022-08-03T04:28:57.834Z,84.8
2022-08-03T04:34:02.296Z,84.7
2022-08-03T04:39:05.864Z,84.6
2022-08-03T04:44:10.354Z,83.5
2022-08-03T04:49:14.963Z,83.2
2022-08-03T04:54:18.470Z,82.3
2022-08-03T04:59:22.995Z,81.7
2022-08-03T05:04:27.514Z,82.2
2022-08-03T05:09:49.942Z,82.1
2022-08-03T05:14:35.591Z,81.8
2022-08-03T05:19:40.134Z,80.9
2022-08-03T05:24:44.683Z,80.7
2022-08-03T05:29:48.233Z,80.1
2022-08-03T05:34:52.779Z,79.2
2022-08-03T05:39:57.296Z,79
2022-08-03T05:45:00.856Z,78.7
2022-08-03T05:50:05.396Z,78.4
2022-08-03T05:55:09.938Z,77.5
2022-08-03T06:00:13.467Z,77.6
2022-08-03T06:05:18.005Z,76.4
2022-08-03T06:10:35.257Z,76.5
2022-08-03T06:15:27.098Z,75.2
2022-08-03T06:20:30.597Z,74.4
2022-08-03T06:25:35.158Z,74.2
2022-08-03T06:30:39.701Z,74.2
2022-08-03T06:35:43.281Z,73
2022-08-03T06:40:47.812Z,71.5
2022-08-03T06:45:52.310Z,70.8
2022-08-03T06:50:55.840Z,70.2
2022-08-03T06:56:00.387Z,68.7
2022-08-03T07:01:04.978Z,66.7
2022-08-03T07:06:08.488Z,65.2
2022-08-03T07:11:13.081Z,67.1
2022-08-03T07:16:16.570Z,66.4
2022-08-03T07:21:21.103Z,66.2
2022-08-03T07:26:25.663Z,66
2022-08-03T07:31:29.159Z,65.6
2022-08-03T07:36:33.729Z,63.8
2022-08-03T07:41:38.263Z,61.6
2022-08-03T07:46:41.810Z,60.7
2022-08-03T07:51:46.380Z,58.1
2022-08-03T07:56:50.858Z,59.8
2022-08-03T08:01:55.430Z,59.4
2022-08-03T08:06:58.983Z,57.6
2022-08-03T08:12:03.528Z,56.3
2022-08-03T08:17:08.058Z,55.1
2022-08-03T08:22:11.576Z,55.9
2022-08-03T08:27:16.126Z,55.8
2022-08-03T08:32:20.686Z,57.1
2022-08-03T08:37:24.243Z,53.4
2022-08-03T08:42:28.789Z,53.4
2022-08-03T08:47:50.942Z,51.3
2022-08-03T08:52:36.869Z,52.1
2022-08-03T08:57:43.201Z,52.2
2022-08-03T09:02:45.945Z,55
2022-08-03T09:07:50.456Z,55.8
2022-08-03T09:12:54.042Z,52
2022-08-03T09:17:58.566Z,50.7
2022-08-03T09:23:14.061Z,50.5
2022-08-03T09:28:06.648Z,50.3
2022-08-03T09:33:11.219Z,51
2022-08-03T09:38:15.743Z,51.7
2022-08-03T09:43:19.305Z,51.6
2022-08-03T09:48:23.869Z,51
2022-08-03T09:53:28.391Z,48.3
2022-08-03T09:58:31.916Z,45.2
2022-08-03T10:03:36.501Z,43.1
2022-08-03T10:08:40.994Z,42
2022-08-03T10:13:45.561Z,44.8
2022-08-03T10:18:49.115Z,47.6
2022-08-03T10:23:53.681Z,48.8
2022-08-03T10:28:58.195Z,46.1
2022-08-03T10:34:01.778Z,44
2022-08-03T10:39:16.086Z,43.4
2022-08-03T10:44:10.831Z,41.9
2022-08-03T10:49:14.462Z,46.7
2022-08-03T10:54:18.893Z,46.1
2022-08-03T10:59:27.509Z,45.3
2022-08-03T11:04:27.026Z,43.4
2022-08-03T11:09:31.549Z,44.8
2022-08-03T11:14:36.128Z,42.9
2022-08-03T11:19:56.701Z,47.5
2022-08-03T11:24:44.240Z,47.7
2022-08-03T11:29:47.799Z,45.4
2022-08-03T11:34:52.315Z,43.6
2022-08-03T11:39:56.857Z,45.4
2022-08-03T11:45:00.403Z,46
2022-08-03T11:50:04.975Z,45.5
2022-08-03T11:55:09.492Z,45.7
2022-08-03T12:00:14.023Z,45.9
2022-08-03T12:05:17.601Z,43.3
2022-08-03T12:10:22.142Z,43.9
2022-08-03T12:15:26.669Z,41
2022-08-03T12:20:34.858Z,40.1
2022-08-03T12:25:38.572Z,39.4
2022-08-03T12:30:39.325Z,39.5
2022-08-03T12:35:52.150Z,42
2022-08-03T12:40:47.406Z,46.9
2022-08-03T12:45:51.908Z,44.8
2022-08-03T12:50:55.479Z,45.2
2022-08-03T12:56:05.820Z,44.3
2022-08-03T13:01:05.066Z,44.2
2022-08-03T13:06:09.075Z,44.4
2022-08-03T13:11:12.665Z,44.5
2022-08-03T13:16:19.300Z,42.5
2022-08-03T13:21:21.728Z,39.1
2022-08-03T13:26:25.301Z,40.3
2022-08-03T13:31:29.796Z,42.1
2022-08-03T13:36:59.246Z,42.4
2022-08-03T13:41:37.951Z,45.2
2022-08-03T13:46:42.445Z,43.2
2022-08-03T13:51:47.010Z,39.3
2022-08-03T13:56:50.533Z,45
2022-08-03T14:01:55.911Z,40.6
2022-08-03T14:06:59.646Z,39.4
2022-08-03T14:12:08.357Z,39.1
2022-08-03T14:17:07.723Z,38.8
2022-08-03T14:22:12.284Z,40.1
2022-08-03T14:27:16.846Z,41.1
2022-08-03T14:32:20.399Z,40.6
2022-08-03T14:37:24.933Z,42.2
2022-08-03T14:42:29.470Z,43.9
2022-08-03T14:47:33.063Z,43.1
2022-08-03T14:52:37.510Z,40.7
2022-08-03T14:57:42.081Z,39.7
2022-08-03T15:02:45.694Z,40.2
2022-08-03T15:07:50.180Z,40
2022-08-03T15:12:54.744Z,40.8
2022-08-03T15:18:00.101Z,40.9
2022-08-03T15:23:02.817Z,39.3
2022-08-03T15:28:07.341Z,40.3
2022-08-03T15:33:11.898Z,39
2022-08-03T15:38:15.450Z,39.7
2022-08-03T15:43:19.006Z,39.5
2022-08-03T15:48:26.591Z,39.7
2022-08-03T15:53:28.063Z,38.7
2022-08-03T15:59:09.886Z,39.2
2022-08-03T16:03:36.197Z,40.1
2022-08-03T16:08:40.710Z,40.2
2022-08-03T16:14:11.895Z,39.1
2022-08-03T16:18:48.786Z,41.3
2022-08-03T16:23:53.342Z,42.6
2022-08-03T16:28:57.895Z,42.5
2022-08-03T16:34:01.443Z,41.3
2022-08-03T16:39:06.042Z,41
2022-08-03T16:44:10.501Z,42.4
2022-08-03T16:49:14.089Z,42.4
2022-08-03T16:54:18.626Z,44.5
2022-08-03T16:59:23.182Z,44
2022-08-03T17:04:27.703Z,44.7
2022-08-03T17:09:38.199Z,44.6
2022-08-03T17:14:35.883Z,43.5
2022-08-03T17:19:40.332Z,43.4
2022-08-03T17:24:43.874Z,41.8
2022-08-03T17:29:48.394Z,42.9
2022-08-03T17:34:52.950Z,43.4
2022-08-03T17:45:01.737Z,45.3
2022-08-03T17:50:09.663Z,45.3
2022-08-03T17:55:58.553Z,47.3
2022-08-03T18:00:13.665Z,48.2
2022-08-03T18:05:18.213Z,50
2022-08-03T18:10:22.751Z,50
2022-08-03T18:15:26.306Z,50.5
2022-08-03T18:20:33.188Z,51.2
2022-08-03T18:30:39.115Z,52.1
2022-08-03T18:35:53.841Z,52.4
2022-08-03T18:40:48.710Z,53.1
2022-08-03T18:45:56.416Z,52.8
2022-08-03T18:50:56.065Z,53.5
2022-08-03T18:56:02.228Z,53.6
2022-08-03T19:01:04.164Z,53.9
2022-08-03T19:06:14.552Z,54
2022-08-03T19:11:13.226Z,54.8
2022-08-03T19:16:18.144Z,54.9
2022-08-03T19:21:21.306Z,55.2
2022-08-03T19:26:30.940Z,55.5
2022-08-03T19:31:31.221Z,56
2022-08-03T19:36:33.920Z,56.5
2022-08-03T19:41:42.152Z,57.2
2022-08-03T19:46:43.001Z,57.9
2022-08-03T19:51:58.391Z,57.9
2022-08-03T19:56:51.059Z,57.5
2022-08-03T20:01:54.782Z,57.2
2022-08-03T20:06:59.149Z,57.5
2022-08-03T20:12:03.701Z,58.1
2022-08-03T20:17:09.170Z,58.3
2022-08-03T20:22:17.972Z,58.9
2022-08-03T20:27:16.316Z,59.2
2022-08-03T20:32:24.356Z,60
2022-08-03T20:37:24.439Z,60.7
2022-08-03T20:42:28.931Z,60.4
2022-08-03T20:47:32.520Z,60.1
2022-08-03T20:52:37.023Z,60.7
2022-08-03T20:57:41.548Z,60.4
2022-08-03T21:02:46.100Z,60.6
2022-08-03T21:08:06.180Z,60.5
2022-08-03T21:12:54.227Z,61.1
2022-08-03T21:12:54.515Z,43.9
2022-08-03T21:13:05.029Z,52
2022-08-03T21:17:58.722Z,61.6
2022-08-03T21:23:02.268Z,61.5
2022-08-03T21:28:06.855Z,61.8
2022-08-03T21:33:11.351Z,62.7
2022-08-03T21:38:14.904Z,63.2
2022-08-03T21:43:19.482Z,63.8
2022-08-03T21:48:23.979Z,64.1
2022-08-03T21:53:28.087Z,64.2
2022-08-03T21:58:32.061Z,65
2022-08-03T22:03:53.071Z,65.5
2022-08-03T22:08:41.122Z,65.6
2022-08-03T22:13:44.804Z,65.5
2022-08-03T22:18:49.201Z,65.3
2022-08-03T22:23:53.737Z,65
2022-08-03T22:28:57.318Z,65.5
2022-08-03T22:34:01.796Z,65.8
2022-08-03T22:39:06.443Z,66.5
2022-08-03T22:44:09.915Z,66.5
2022-08-03T22:49:14.538Z,65.9
2022-08-03T22:54:18.957Z,66.3
2022-08-03T22:59:39.011Z,66.8
2022-08-03T23:04:27.058Z,66.7
2022-08-03T23:09:31.561Z,67
2022-08-03T23:14:36.132Z,67.4
2022-08-03T23:19:44.607Z,66.5
2022-08-03T23:24:44.390Z,66.8
2022-08-03T23:29:48.758Z,66.8
2022-08-03T23:34:52.287Z,67.3
2022-08-03T23:39:56.822Z,67.1
2022-08-03T23:45:05.503Z,66.9
2022-08-03T23:50:04.877Z,66.8
2022-08-03T23:55:09.410Z,66.5
